createdAt,value
2019-02-19T00:02:44.819Z,41.07
2019-02-19T00:05:27.447Z,45.57
2019-02-19T00:08:11.365Z,39.27
2019-02-19T00:10:53.859Z,44.23
2019-02-19T00:13:36.739Z,40.60
2019-02-19T00:16:20.561Z,37.10
2019-02-19T00:19:03.285Z,38.80
2019-02-19T00:21:46.205Z,37.17
2019-02-19T00:24:28.648Z,38.53
2019-02-19T00:27:11.843Z,33.53
2019-02-19T00:29:54.566Z,37.60
2019-02-19T00:32:37.723Z,27.00
2019-02-19T00:35:20.589Z,24.90
2019-02-19T00:38:03.550Z,28.53
2019-02-19T00:40:46.309Z,35.23
2019-02-19T00:43:30.513Z,26.97
2019-02-19T00:46:13.660Z,31.70
2019-02-19T00:48:57.481Z,34.20
2019-02-19T00:51:40.396Z,31.77
2019-02-19T00:54:22.722Z,29.53
2019-02-19T00:57:05.706Z,28.43
2019-02-19T00:59:48.376Z,34.20
2019-02-19T01:02:31.430Z,39.47
2019-02-19T01:05:14.543Z,32.37
2019-02-19T01:07:57.312Z,37.33
2019-02-19T01:10:40.350Z,34.10
2019-02-19T01:13:23.347Z,33.87
2019-02-19T01:16:06.296Z,34.17
2019-02-19T01:18:50.273Z,31.63
2019-02-19T01:21:33.427Z,32.57
2019-02-19T01:24:16.238Z,37.03
2019-02-19T01:26:59.163Z,31.37
2019-02-19T01:29:42.347Z,31.93
2019-02-19T01:32:25.098Z,32.40
2019-02-19T01:35:09.235Z,28.17
2019-02-19T01:37:51.935Z,33.23
2019-02-19T01:40:34.783Z,33.03
2019-02-19T01:43:17.669Z,25.37
2019-02-19T01:46:01.529Z,17.80
2019-02-19T01:48:44.248Z,23.63
2019-02-19T01:51:30.489Z,29.23
2019-02-19T01:54:13.380Z,30.63
2019-02-19T01:56:56.011Z,27.13
2019-02-19T01:59:38.799Z,30.03
2019-02-19T02:02:22.064Z,24.67
2019-02-19T02:05:05.351Z,27.50
2019-02-19T02:07:48.326Z,30.10
2019-02-19T02:10:31.196Z,27.33
2019-02-19T02:13:18.133Z,26.57
2019-02-19T02:16:01.007Z,22.37
2019-02-19T02:18:43.599Z,26.23
2019-02-19T02:21:27.306Z,25.97
2019-02-19T02:27:07.583Z,30.13
2019-02-19T02:29:57.534Z,28.23
2019-02-19T02:32:40.504Z,28.27
2019-02-19T02:35:23.418Z,29.33
2019-02-19T02:38:10.093Z,23.97
2019-02-19T02:40:55.123Z,20.50
2019-02-19T02:43:38.308Z,31.07
2019-02-19T02:46:20.598Z,22.57
2019-02-19T02:49:03.425Z,22.87
2019-02-19T02:51:53.252Z,27.40
2019-02-19T02:57:36.727Z,25.10
2019-02-19T03:00:26.620Z,24.67
2019-02-19T03:03:09.649Z,22.60
2019-02-19T03:08:59.246Z,21.93
2019-02-19T03:11:49.194Z,22.87
2019-02-19T03:14:35.559Z,28.13
2019-02-19T03:17:22.716Z,22.37
2019-02-19T03:20:06.267Z,24.70
2019-02-19T03:22:53.443Z,28.13
2019-02-19T03:28:32.806Z,23.30
2019-02-19T03:31:15.804Z,26.63
2019-02-19T03:33:58.417Z,27.63
2019-02-19T03:36:48.206Z,18.83
2019-02-19T03:39:30.661Z,20.80
2019-02-19T03:42:13.647Z,21.63
2019-02-19T03:44:56.287Z,18.60
2019-02-19T03:47:46.152Z,21.83
2019-02-19T03:50:29.122Z,20.03
2019-02-19T03:53:12.226Z,16.97
2019-02-19T03:55:55.032Z,20.20
2019-02-19T03:58:44.899Z,19.73
2019-02-19T04:01:27.384Z,17.57
2019-02-19T04:04:09.774Z,18.43
2019-02-19T04:06:52.686Z,19.57
2019-02-19T04:12:37.348Z,20.17
2019-02-19T04:15:27.241Z,19.77
2019-02-19T04:18:09.599Z,26.90
2019-02-19T04:23:53.869Z,20.33
2019-02-19T04:26:43.713Z,15.83
2019-02-19T04:32:30.980Z,21.03
2019-02-19T04:35:13.859Z,19.30
2019-02-19T04:37:56.588Z,18.00
2019-02-19T04:40:39.467Z,22.83
2019-02-19T04:43:22.312Z,20.03
2019-02-19T04:46:12.132Z,18.70
2019-02-19T04:48:55.153Z,23.30
2019-02-19T04:51:37.841Z,23.37
2019-02-19T04:54:20.837Z,22.23
2019-02-19T05:03:07.568Z,24.27
2019-02-19T05:05:50.396Z,20.97
2019-02-19T05:08:33.143Z,24.73
2019-02-19T05:11:16.097Z,23.97
2019-02-19T05:13:59.349Z,20.80
2019-02-19T05:16:45.818Z,25.70
2019-02-19T05:19:28.288Z,21.97
2019-02-19T05:25:15.675Z,27.17
2019-02-19T05:28:05.481Z,27.13
2019-02-19T05:30:48.075Z,31.93
2019-02-19T05:33:37.976Z,30.83
2019-02-19T05:36:21.537Z,33.53
2019-02-19T05:39:05.219Z,35.77
2019-02-19T05:41:47.877Z,35.13
2019-02-19T05:44:37.674Z,30.27
2019-02-19T05:47:20.229Z,32.80
2019-02-19T05:50:06.267Z,34.10
2019-02-19T05:52:50.082Z,29.40
2019-02-19T05:55:40.093Z,30.87
2019-02-19T05:58:22.699Z,24.03
2019-02-19T06:00:53.365Z,31.40
2019-02-19T06:03:35.764Z,28.00
2019-02-19T06:09:27.250Z,26.37
2019-02-19T06:12:10.955Z,27.40
2019-02-19T06:14:56.225Z,34.23
2019-02-19T06:17:40.038Z,38.10
2019-02-19T06:20:23.309Z,20.73
2019-02-19T06:23:05.915Z,24.57
2019-02-19T06:25:50.735Z,25.40
2019-02-19T06:31:34.883Z,26.60
2019-02-19T06:34:24.721Z,30.57
2019-02-19T06:37:07.661Z,29.47
2019-02-19T06:39:57.416Z,30.93
2019-02-19T06:42:46.514Z,27.63
2019-02-19T06:45:36.276Z,29.17
2019-02-19T06:48:19.144Z,32.03
2019-02-19T06:57:05.169Z,32.00
2019-02-19T06:59:48.718Z,31.60
2019-02-19T07:02:34.386Z,30.03
2019-02-19T07:05:18.696Z,32.93
2019-02-19T07:08:01.813Z,28.00
2019-02-19T07:10:44.757Z,29.60
2019-02-19T07:13:27.524Z,33.77
2019-02-19T07:16:10.385Z,37.43
2019-02-19T07:18:53.039Z,26.63
2019-02-19T07:21:35.527Z,31.03
2019-02-19T07:24:22.176Z,25.63
2019-02-19T07:27:05.865Z,30.37
2019-02-19T07:29:48.828Z,27.00
2019-02-19T07:32:31.163Z,30.67
2019-02-19T07:35:14.102Z,31.40
2019-02-19T07:37:56.788Z,28.93
2019-02-19T07:40:39.720Z,36.07
2019-02-19T07:43:22.519Z,32.33
2019-02-19T07:46:05.490Z,30.20
2019-02-19T07:48:48.174Z,29.10
2019-02-19T07:51:31.526Z,30.73
2019-02-19T07:54:14.704Z,28.77
2019-02-19T07:56:58.782Z,27.67
2019-02-19T07:59:41.782Z,29.67
2019-02-19T08:02:24.574Z,29.70
2019-02-19T08:05:07.081Z,29.47
2019-02-19T08:07:49.537Z,34.87
2019-02-19T08:10:32.231Z,30.37
2019-02-19T08:13:20.959Z,32.70
2019-02-19T08:16:04.031Z,29.07
2019-02-19T08:18:47.019Z,26.77
2019-02-19T08:21:30.254Z,30.63
2019-02-19T08:24:12.636Z,33.00
2019-02-19T08:26:55.962Z,34.13
2019-02-19T08:29:39.245Z,32.57
2019-02-19T08:32:22.043Z,32.13
2019-02-19T08:35:06.421Z,26.30
2019-02-19T08:37:49.904Z,33.33
2019-02-19T08:40:32.607Z,31.17
2019-02-19T08:43:15.071Z,29.07
2019-02-19T08:45:58.872Z,31.40
2019-02-19T08:48:41.819Z,40.40
2019-02-19T08:51:24.737Z,28.40
2019-02-19T08:54:11.553Z,34.63
2019-02-19T08:56:54.472Z,33.13
2019-02-19T08:59:37.454Z,28.33
2019-02-19T09:02:21.477Z,33.90
2019-02-19T09:05:05.297Z,29.67
2019-02-19T09:07:48.255Z,30.70
2019-02-19T09:10:31.179Z,28.87
2019-02-19T09:13:14.916Z,31.47
2019-02-19T09:15:57.731Z,33.73
2019-02-19T09:18:39.987Z,28.67
2019-02-19T09:21:23.019Z,34.07
2019-02-19T09:24:12.835Z,36.97
2019-02-19T09:26:55.939Z,30.73
2019-02-19T09:29:39.421Z,38.37
2019-02-19T09:32:22.054Z,36.57
2019-02-19T09:38:13.545Z,32.57
2019-02-19T09:41:00.620Z,32.73
2019-02-19T09:43:43.123Z,35.77
2019-02-19T09:46:32.860Z,36.33
2019-02-19T09:49:16.054Z,33.23
2019-02-19T09:51:59.074Z,30.60
2019-02-19T09:54:42.066Z,29.10
2019-02-19T09:57:32.726Z,29.43
2019-02-19T10:00:21.937Z,39.30
2019-02-19T10:06:13.573Z,25.53
2019-02-19T10:08:56.767Z,29.53
2019-02-19T10:11:39.557Z,28.93
2019-02-19T10:14:22.642Z,26.20
2019-02-19T10:17:05.628Z,24.37
2019-02-19T10:19:55.809Z,27.47
2019-02-19T10:22:38.215Z,31.53
2019-02-19T10:25:22.204Z,24.57
2019-02-19T10:28:05.178Z,26.20
2019-02-19T10:30:48.967Z,29.43
2019-02-19T10:33:31.638Z,29.47
2019-02-19T10:36:14.643Z,26.90
2019-02-19T10:38:57.454Z,29.63
2019-02-19T10:41:47.263Z,30.63
2019-02-19T10:44:30.446Z,31.80
2019-02-19T10:47:13.458Z,30.40
2019-02-19T10:49:56.260Z,30.63
2019-02-19T10:55:48.879Z,31.53
2019-02-19T10:58:31.628Z,32.63
2019-02-19T11:01:14.693Z,30.43
2019-02-19T11:04:24.723Z,27.97
2019-02-19T11:07:07.944Z,31.43
2019-02-19T11:09:50.615Z,28.30
2019-02-19T11:12:33.559Z,29.97
2019-02-19T11:18:15.057Z,27.60
2019-02-19T11:20:57.733Z,25.93
2019-02-19T11:23:40.479Z,26.73
2019-02-19T11:29:25.516Z,31.60
2019-02-19T11:32:12.868Z,28.03
2019-02-19T11:34:56.041Z,27.33
2019-02-19T11:43:43.062Z,27.60
2019-02-19T11:46:26.342Z,28.93
2019-02-19T11:49:09.155Z,31.63
2019-02-19T11:51:51.754Z,33.17
2019-02-19T11:54:34.317Z,37.37
2019-02-19T11:57:18.444Z,28.97
2019-02-19T12:00:03.073Z,31.63
2019-02-19T12:02:45.720Z,30.33
2019-02-19T12:05:28.901Z,38.43
2019-02-19T12:08:12.666Z,29.63
2019-02-19T12:10:54.913Z,30.57
2019-02-19T12:13:37.910Z,30.40
2019-02-19T12:16:20.794Z,33.90
2019-02-19T12:19:04.050Z,32.03
2019-02-19T12:21:46.910Z,31.90
2019-02-19T12:24:33.740Z,34.67
2019-02-19T12:27:16.644Z,32.03
2019-02-19T12:30:04.016Z,35.63
2019-02-19T12:32:47.656Z,32.40
2019-02-19T12:35:30.285Z,33.30
2019-02-19T12:38:13.842Z,33.77
2019-02-19T12:41:00.600Z,34.57
2019-02-19T12:43:44.666Z,31.30
2019-02-19T12:46:31.918Z,32.97
2019-02-19T12:52:13.052Z,31.07
2019-02-19T12:58:10.278Z,33.03
2019-02-19T13:00:53.231Z,34.13
2019-02-19T13:03:36.205Z,33.70
2019-02-19T13:09:28.023Z,37.10
2019-02-19T13:12:10.744Z,36.37
2019-02-19T13:14:53.705Z,34.73
2019-02-19T13:20:48.453Z,36.33
2019-02-19T13:23:31.085Z,35.67
2019-02-19T13:26:13.802Z,39.43
2019-02-19T13:29:03.677Z,35.37
2019-02-19T13:31:51.898Z,34.80
2019-02-19T13:34:39.597Z,36.10
2019-02-19T13:37:22.348Z,37.60
2019-02-19T13:40:32.942Z,33.63
2019-02-19T13:43:16.027Z,34.47
2019-02-19T13:45:58.715Z,33.13
2019-02-19T13:48:41.541Z,35.97
2019-02-19T13:51:31.355Z,33.53
2019-02-19T13:54:15.435Z,33.27
2019-02-19T13:56:58.604Z,35.30
2019-02-19T13:59:41.337Z,33.17
2019-02-19T14:02:31.152Z,32.33
2019-02-19T14:05:14.092Z,35.93
2019-02-19T14:07:56.748Z,34.57
2019-02-19T14:10:39.521Z,36.47
2019-02-19T14:13:29.327Z,39.20
2019-02-19T14:16:21.427Z,31.40
2019-02-19T14:19:06.133Z,36.83
2019-02-19T14:22:08.414Z,36.63
2019-02-19T14:25:17.422Z,39.77
2019-02-19T14:31:02.813Z,36.37
2019-02-19T14:37:12.805Z,35.70
2019-02-19T14:40:15.271Z,38.43
2019-02-19T14:43:05.973Z,44.67
2019-02-19T14:46:08.223Z,36.57
2019-02-19T14:48:53.024Z,39.70
2019-02-19T14:57:56.268Z,41.17
2019-02-19T15:01:01.929Z,35.90
2019-02-19T15:03:48.671Z,37.70
2019-02-19T15:06:57.108Z,37.87
2019-02-19T15:09:44.500Z,37.77
2019-02-19T15:12:38.393Z,40.97
2019-02-19T15:15:40.126Z,43.73
2019-02-19T15:21:25.637Z,39.30
2019-02-19T15:27:25.972Z,43.87
2019-02-19T15:33:25.950Z,39.80
2019-02-19T15:36:13.435Z,41.73
2019-02-19T15:38:58.024Z,41.87
2019-02-19T15:42:07.066Z,37.70
2019-02-19T15:45:09.225Z,47.13
2019-02-19T15:47:54.080Z,40.13
2019-02-19T15:51:02.123Z,39.57
2019-02-19T15:57:04.125Z,44.37
2019-02-19T16:00:13.136Z,43.57
2019-02-19T16:02:58.123Z,45.87
2019-02-19T16:05:42.436Z,44.47
2019-02-19T16:11:30.948Z,42.63
2019-02-19T16:14:34.797Z,40.00
2019-02-19T16:20:51.294Z,37.37
2019-02-19T16:23:53.891Z,43.17
2019-02-19T16:26:39.100Z,42.43
2019-02-19T16:33:10.943Z,47.47
2019-02-19T16:39:12.959Z,47.07
2019-02-19T16:45:22.358Z,45.77
2019-02-19T16:48:09.792Z,50.17
2019-02-19T16:50:53.739Z,54.50
2019-02-19T16:54:02.681Z,47.17
2019-02-19T17:00:06.280Z,54.43
2019-02-19T17:03:15.244Z,51.27
2019-02-19T17:09:21.597Z,55.33
2019-02-19T17:12:06.756Z,49.13
2019-02-19T17:15:10.465Z,49.07
2019-02-19T17:24:05.205Z,48.87
2019-02-19T17:27:14.173Z,52.20
2019-02-19T17:30:16.442Z,49.13
2019-02-19T17:33:02.399Z,46.23
2019-02-19T17:35:47.224Z,53.60
2019-02-19T17:38:31.687Z,49.40
2019-02-19T17:41:18.610Z,49.73
2019-02-19T17:44:31.530Z,46.87
2019-02-19T17:47:33.636Z,45.57
2019-02-19T17:50:40.813Z,48.13
2019-02-19T17:53:32.611Z,49.00
2019-02-19T17:56:16.864Z,56.43
2019-02-19T17:59:01.483Z,46.67
2019-02-19T18:04:53.154Z,54.10
2019-02-19T18:08:02.057Z,50.03
2019-02-19T18:11:03.941Z,53.33
2019-02-19T18:14:00.787Z,51.77
2019-02-19T18:16:34.172Z,53.93
2019-02-19T18:19:04.752Z,56.13
2019-02-19T18:21:35.934Z,51.20
2019-02-19T18:24:06.555Z,52.53
2019-02-19T18:26:36.978Z,61.50
2019-02-19T18:29:07.494Z,62.77
2019-02-19T18:31:38.047Z,69.30
2019-02-19T18:34:08.633Z,64.63
2019-02-19T18:36:39.021Z,68.57
2019-02-19T18:39:09.807Z,69.40
2019-02-19T18:41:40.449Z,67.73
2019-02-19T18:44:10.909Z,66.57
2019-02-19T18:46:43.258Z,60.10
2019-02-19T18:49:13.875Z,67.50
2019-02-19T18:51:44.369Z,65.83
2019-02-19T18:54:14.843Z,60.07
2019-02-19T18:56:45.452Z,68.77
2019-02-19T18:59:16.236Z,75.17
2019-02-19T19:01:46.661Z,73.67
2019-02-19T19:04:17.167Z,72.53
2019-02-19T19:06:47.710Z,64.43
2019-02-19T19:09:18.296Z,68.27
2019-02-19T19:11:48.889Z,70.23
2019-02-19T19:14:19.453Z,66.60
2019-02-19T19:16:49.837Z,64.33
2019-02-19T19:19:20.342Z,64.03
2019-02-19T19:21:50.948Z,67.03
2019-02-19T19:24:21.467Z,67.13
2019-02-19T19:26:52.085Z,62.47
2019-02-19T19:29:22.748Z,63.83
2019-02-19T19:31:53.258Z,64.87
2019-02-19T19:34:23.688Z,59.43
2019-02-19T19:36:54.157Z,62.50
2019-02-19T19:39:25.532Z,61.57
2019-02-19T19:41:56.040Z,59.77
2019-02-19T19:44:26.512Z,60.37
2019-02-19T19:46:57.806Z,58.40
2019-02-19T19:49:28.390Z,64.83
2019-02-19T19:51:58.955Z,67.37
2019-02-19T19:54:29.495Z,57.07
2019-02-19T19:57:00.062Z,57.13
2019-02-19T19:59:30.566Z,57.70
2019-02-19T20:02:01.056Z,59.30
2019-02-19T20:04:33.245Z,56.50
2019-02-19T20:07:03.919Z,54.00
2019-02-19T20:09:34.337Z,61.43
2019-02-19T20:12:04.975Z,64.23
2019-02-19T20:14:35.512Z,55.23
2019-02-19T20:17:06.123Z,53.23
2019-02-19T20:19:36.716Z,57.40
2019-02-19T20:22:07.626Z,58.10
2019-02-19T20:24:38.066Z,57.63
2019-02-19T20:27:08.724Z,58.70
2019-02-19T20:29:39.416Z,61.97
2019-02-19T20:32:10.033Z,61.40
2019-02-19T20:34:41.265Z,62.97
2019-02-19T20:37:12.254Z,58.17
2019-02-19T20:39:42.760Z,67.97
2019-02-19T20:42:13.343Z,63.03
2019-02-19T20:44:43.840Z,74.03
2019-02-19T20:47:15.159Z,64.80
2019-02-19T20:49:45.638Z,57.50
2019-02-19T20:52:16.671Z,62.87
2019-02-19T20:54:47.322Z,65.43
2019-02-19T20:57:17.805Z,60.43
2019-02-19T20:59:48.380Z,63.90
2019-02-19T21:02:19.020Z,63.37
2019-02-19T21:04:49.870Z,59.17
2019-02-19T21:07:20.867Z,64.27
2019-02-19T21:09:51.447Z,60.80
2019-02-19T21:12:21.995Z,60.40
2019-02-19T21:14:52.455Z,60.73
2019-02-19T21:17:22.863Z,65.77
2019-02-19T21:19:53.324Z,62.90
2019-02-19T21:22:23.825Z,58.00
2019-02-19T21:24:54.763Z,54.33
2019-02-19T21:27:25.286Z,63.47
2019-02-19T21:29:57.280Z,55.13
2019-02-19T21:32:27.766Z,57.37
2019-02-19T21:34:58.251Z,54.40
2019-02-19T21:37:28.815Z,57.77
2019-02-19T21:39:59.388Z,54.77
2019-02-19T21:42:29.875Z,61.47
2019-02-19T21:45:00.450Z,53.73
2019-02-19T21:47:31.859Z,64.77
2019-02-19T21:50:02.303Z,61.13
2019-02-19T21:52:32.905Z,63.30
2019-02-19T21:55:04.641Z,58.80
2019-02-19T21:57:35.297Z,69.03
2019-02-19T22:00:19.580Z,66.47
2019-02-19T22:02:50.202Z,61.80
2019-02-19T22:05:20.703Z,68.77
2019-02-19T22:07:51.219Z,64.80
2019-02-19T22:10:21.748Z,63.67
2019-02-19T22:12:52.397Z,65.03
2019-02-19T22:15:22.838Z,58.57
2019-02-19T22:17:53.349Z,64.77
2019-02-19T22:20:42.114Z,69.47
2019-02-19T22:23:12.769Z,64.00
2019-02-19T22:25:43.354Z,72.57
2019-02-19T22:28:13.932Z,69.63
2019-02-19T22:30:44.409Z,75.13
2019-02-19T22:33:14.848Z,62.53
2019-02-19T22:35:45.220Z,64.00
2019-02-19T22:38:16.344Z,61.70
2019-02-19T22:40:54.827Z,67.73
2019-02-19T22:43:18.988Z,71.37
2019-02-19T22:45:49.450Z,70.53
2019-02-19T22:48:23.909Z,68.07
2019-02-19T22:50:54.454Z,67.40
2019-02-19T22:53:42.345Z,60.77
2019-02-19T22:56:17.397Z,64.37
2019-02-19T22:58:47.886Z,67.83
2019-02-19T23:01:32.052Z,63.07
2019-02-19T23:04:03.550Z,71.30
2019-02-19T23:06:34.052Z,74.40
2019-02-19T23:09:05.458Z,72.00
2019-02-19T23:11:36.080Z,58.97
2019-02-19T23:14:06.683Z,69.43
2019-02-19T23:16:37.083Z,58.57
2019-02-19T23:19:07.719Z,66.80
2019-02-19T23:21:38.337Z,63.37
2019-02-19T23:24:08.920Z,59.13
2019-02-19T23:26:39.349Z,64.37
2019-02-19T23:29:09.911Z,71.73
2019-02-19T23:31:40.469Z,65.53
2019-02-19T23:34:11.101Z,68.70
2019-02-19T23:36:43.491Z,63.83
2019-02-19T23:39:13.961Z,64.30
2019-02-19T23:41:44.491Z,67.83
2019-02-19T23:44:14.941Z,63.40
2019-02-19T23:46:45.486Z,61.37
2019-02-19T23:49:16.684Z,62.57
2019-02-19T23:51:47.867Z,60.20
2019-02-19T23:54:18.445Z,62.97
2019-02-19T23:56:48.995Z,61.03
2019-02-19T23:59:19.511Z,53.90
